Airfield :
LOGIN :

Register | Disclaimer

   EN    FR    IT 

 










Legend :    VFR   Marginal VFR   IFR   Intensive IFR   Very Intensive IFR
Visi :
Ceiling :
>= 8 km
>= 3000ft
5 to 8 km
1000 to 3000 ft
1500m to 5 km
500 to 1000 ft
800 to 1500m
200 to 500 ft
< 800m
< 200 ft
Symbols :   Thunderstorms  Fog  Heavy snow  Heavy precipitations  Wind > 20 kt
SIGMETs :     Misc.  Thunderstorms  Icing  Turbulence  Mountain Waves  Volcanic Ashes






- Airport Elevation : 526 ft
- IATA code : LTN


EGGW - London Luton

CURRENT METAR :
  • 051620Z AUTO 22015KT 9999 NCD 22/11 Q1012

EXPIRED METARs :
  • 051550Z AUTO 22013KT 180V240 9999 NCD 23/10 Q1012
  • 051520Z AUTO 22015KT 9999 NCD 23/09 Q1011
  • 051450Z AUTO 22015KT 9999 NCD 24/07 Q1011
  • 051420Z AUTO 21014G24KT 180V250 9999 NCD 25/07 Q1011
  • 051350Z AUTO 21012KT 170V230 9999 NCD 25/07 Q1011

TAF TAF EGGW
Valid from the 05 at 12:00 until the 06 at 12:00 UTC


051107Z 0512/0612 21012KT 9999 SCT024
PROB30
TEMPO 0512/0517 22015G25KT
TEMPO 0521/0612 BKN012
PROB30
TEMPO 0603/0610 9000 -RA BKN007
ATIS : +44 1582 395 204



MET'MAP, your aeronautical weather chart ! - Copyright ORBIFLY December 2007 - Disclaimer

ORBIFLY MET'MAP TEAM :

Programming & Development : Alexandra Zaïnal
Concept & original design : Baudouin d'Aumeries
Assistance for programming : Marc-Olivier Méhu
Technical & hardware support : Manuel Goepfert

Contact : metmap@orbifly.com




SOURCES & CREDITS :

   NOAA